createdAt,value
2023-03-24T00:01:21.255Z,5.47
2023-03-24T00:03:52.023Z,5.53
2023-03-24T00:06:22.918Z,5.40
2023-03-24T00:08:51.021Z,5.17
2023-03-24T00:11:20.989Z,4.70
2023-03-24T00:13:50.727Z,5.30
2023-03-24T00:16:19.323Z,5.00
2023-03-24T00:18:53.008Z,5.20
2023-03-24T00:21:23.640Z,5.13
2023-03-24T00:23:54.757Z,5.53
2023-03-24T00:26:24.982Z,4.93
2023-03-24T00:28:53.721Z,5.37
2023-03-24T00:31:24.563Z,4.87
2023-03-24T00:33:54.641Z,4.57
2023-03-24T00:36:24.764Z,4.80
2023-03-24T00:38:53.512Z,5.83
2023-03-24T00:41:21.464Z,4.53
2023-03-24T00:43:50.207Z,4.43
2023-03-24T00:46:28.480Z,4.83
2023-03-24T00:49:03.065Z,4.80
2023-03-24T00:51:32.098Z,4.73
2023-03-24T00:54:00.027Z,4.23
2023-03-24T00:56:31.451Z,4.70
2023-03-24T00:59:02.149Z,4.73
2023-03-24T01:01:33.106Z,4.70
2023-03-24T01:04:02.427Z,4.50
2023-03-24T01:06:30.471Z,4.40
2023-03-24T01:08:58.584Z,4.47
2023-03-24T01:11:27.224Z,4.40
2023-03-24T01:13:55.378Z,3.80
2023-03-24T01:16:26.063Z,4.30
2023-03-24T01:18:53.981Z,5.13
2023-03-24T01:21:25.616Z,4.83
2023-03-24T01:23:53.868Z,5.37
2023-03-24T01:26:21.707Z,4.47
2023-03-24T01:28:50.253Z,4.53
2023-03-24T01:31:18.063Z,4.50
2023-03-24T01:33:46.395Z,4.23
2023-03-24T01:36:14.489Z,4.63
2023-03-24T01:38:43.933Z,4.73
2023-03-24T01:41:12.267Z,5.77
2023-03-24T01:43:40.192Z,5.00
2023-03-24T01:46:14.054Z,5.23
2023-03-24T01:48:44.671Z,4.73
2023-03-24T01:51:14.817Z,4.63
2023-03-24T01:53:46.863Z,4.77
2023-03-24T01:56:15.709Z,4.63
2023-03-24T01:58:48.153Z,3.97
2023-03-24T02:01:29.880Z,4.47
2023-03-24T02:04:06.343Z,5.13
2023-03-24T02:06:35.894Z,4.77
2023-03-24T02:09:05.708Z,4.30
2023-03-24T02:11:34.505Z,4.57
2023-03-24T02:14:06.036Z,5.00
2023-03-24T02:16:49.661Z,4.90
2023-03-24T02:19:38.124Z,5.03
2023-03-24T02:22:19.378Z,4.20
2023-03-24T02:25:08.304Z,4.50
2023-03-24T02:27:47.290Z,4.33
2023-03-24T02:30:24.361Z,4.23
2023-03-24T02:33:25.485Z,3.90
2023-03-24T02:36:15.598Z,4.07
2023-03-24T02:39:02.620Z,3.87
2023-03-24T02:41:33.590Z,4.23
2023-03-24T02:44:06.100Z,4.67
2023-03-24T02:46:37.157Z,3.80
2023-03-24T02:49:10.810Z,3.77
2023-03-24T02:51:46.985Z,3.63
2023-03-24T02:54:17.691Z,4.30
2023-03-24T02:56:48.928Z,4.00
2023-03-24T02:59:32.517Z,4.47
2023-03-24T03:02:04.504Z,4.20
2023-03-24T03:04:46.874Z,4.00
2023-03-24T03:07:16.858Z,4.30
2023-03-24T03:09:47.605Z,4.50
2023-03-24T03:12:19.135Z,4.40
2023-03-24T03:14:50.350Z,5.20
2023-03-24T03:17:20.792Z,4.40
2023-03-24T03:19:52.909Z,4.80
2023-03-24T03:22:23.872Z,4.93
2023-03-24T03:24:54.383Z,4.93
2023-03-24T03:27:27.198Z,4.57
2023-03-24T03:30:01.223Z,5.17
2023-03-24T03:32:31.950Z,5.63
2023-03-24T03:37:59.956Z,5.27
2023-03-24T03:40:31.835Z,5.50
2023-03-24T03:43:08.453Z,6.00
2023-03-24T03:45:37.604Z,5.30
2023-03-24T03:48:05.913Z,6.17
2023-03-24T03:50:34.187Z,5.93
2023-03-24T03:53:07.105Z,5.67
2023-03-24T03:55:35.535Z,6.30
2023-03-24T03:58:06.065Z,6.20
2023-03-24T04:00:46.003Z,6.57
2023-03-24T04:03:38.823Z,6.30
2023-03-24T04:06:14.858Z,6.33
2023-03-24T04:08:48.954Z,6.90
2023-03-24T04:11:35.585Z,7.30
2023-03-24T04:14:27.112Z,6.90
2023-03-24T04:17:26.379Z,7.10
2023-03-24T04:20:04.053Z,7.10
2023-03-24T04:22:38.335Z,7.20
2023-03-24T04:25:22.627Z,7.57
2023-03-24T04:28:01.017Z,8.50
2023-03-24T04:30:33.372Z,7.97
2023-03-24T04:33:04.900Z,7.37
2023-03-24T04:35:35.480Z,8.20
2023-03-24T04:38:25.775Z,9.20
2023-03-24T04:41:08.316Z,9.20
2023-03-24T04:43:39.356Z,7.93
2023-03-24T04:46:10.027Z,9.83
2023-03-24T04:48:53.233Z,8.80
2023-03-24T04:51:40.660Z,8.80
2023-03-24T04:54:14.834Z,9.00
2023-03-24T04:56:50.885Z,9.00
2023-03-24T04:59:29.001Z,9.03
2023-03-24T05:01:57.720Z,9.50
2023-03-24T05:04:38.090Z,9.50
2023-03-24T05:07:17.251Z,8.80
2023-03-24T05:09:47.426Z,8.37
2023-03-24T05:12:15.181Z,8.53
2023-03-24T05:15:09.692Z,8.20
2023-03-24T05:17:38.423Z,8.33
2023-03-24T05:20:11.020Z,8.43
2023-03-24T05:22:42.083Z,8.80
2023-03-24T05:25:10.696Z,8.53
2023-03-24T05:27:38.445Z,7.70
2023-03-24T05:30:36.964Z,8.87
2023-03-24T05:33:15.915Z,8.10
2023-03-24T05:35:45.661Z,8.90
2023-03-24T05:38:13.990Z,9.23
2023-03-24T05:40:45.480Z,9.70
2023-03-24T05:43:14.946Z,7.97
2023-03-24T05:45:49.611Z,8.30
2023-03-24T05:48:27.653Z,7.50
2023-03-24T05:51:17.520Z,8.00
2023-03-24T05:53:53.114Z,8.60
2023-03-24T05:56:26.052Z,8.17
2023-03-24T05:59:12.572Z,7.70
2023-03-24T06:02:07.875Z,7.53
2023-03-24T06:05:05.223Z,7.00
2023-03-24T06:07:34.723Z,5.90
2023-03-24T06:10:03.443Z,7.00
2023-03-24T06:12:39.559Z,6.30
2023-03-24T06:15:08.032Z,6.30
2023-03-24T06:17:37.249Z,6.70
2023-03-24T06:20:15.616Z,7.20
2023-03-24T06:23:02.665Z,7.20
2023-03-24T06:26:03.267Z,6.80
2023-03-24T06:28:34.356Z,6.73
2023-03-24T06:31:07.288Z,6.63
2023-03-24T06:33:38.641Z,7.33
2023-03-24T06:36:08.117Z,6.00
2023-03-24T06:38:37.218Z,6.20
2023-03-24T06:41:07.238Z,5.80
2023-03-24T06:43:35.773Z,6.40
2023-03-24T06:46:03.570Z,6.10
2023-03-24T06:48:32.812Z,5.97
2023-03-24T06:51:08.181Z,6.07
2023-03-24T06:53:41.332Z,5.97
2023-03-24T06:56:09.364Z,6.37
2023-03-24T06:58:44.402Z,7.47
2023-03-24T07:01:27.713Z,6.30
2023-03-24T07:04:03.433Z,6.50
2023-03-24T07:09:28.207Z,6.37
2023-03-24T07:11:55.869Z,8.00
2023-03-24T07:14:26.115Z,7.53
2023-03-24T07:16:57.431Z,6.50
2023-03-24T07:19:38.017Z,5.87
2023-03-24T07:22:36.005Z,6.27
2023-03-24T07:25:25.670Z,6.00
2023-03-24T07:28:08.753Z,7.17
2023-03-24T07:30:51.229Z,6.97
2023-03-24T07:33:22.069Z,6.83
2023-03-24T07:35:50.037Z,6.57
2023-03-24T07:38:18.413Z,6.23
2023-03-24T07:40:50.526Z,6.07
2023-03-24T07:43:18.700Z,5.60
2023-03-24T07:46:18.375Z,5.03
2023-03-24T07:48:46.849Z,5.00
2023-03-24T07:51:17.990Z,5.10
2023-03-24T07:54:01.207Z,5.00
2023-03-24T07:56:35.645Z,5.47
2023-03-24T07:59:03.741Z,4.90
2023-03-24T08:01:56.130Z,4.80
2023-03-24T08:04:42.862Z,5.67
2023-03-24T08:07:53.286Z,5.87
2023-03-24T08:10:22.896Z,5.50
2023-03-24T08:12:52.382Z,6.40
2023-03-24T08:15:21.449Z,6.63
2023-03-24T08:17:49.841Z,6.80
2023-03-24T08:20:19.434Z,6.60
2023-03-24T08:22:54.816Z,8.00
2023-03-24T08:25:23.460Z,7.10
2023-03-24T08:27:53.045Z,7.73
2023-03-24T08:30:22.107Z,8.07
2023-03-24T08:32:51.443Z,7.77
2023-03-24T08:35:20.924Z,8.03
2023-03-24T08:37:48.976Z,7.00
2023-03-24T08:40:19.318Z,7.20
2023-03-24T08:42:49.478Z,8.40
2023-03-24T08:45:20.918Z,7.17
2023-03-24T08:47:49.216Z,7.30
2023-03-24T08:50:17.167Z,6.40
2023-03-24T08:52:48.064Z,7.03
2023-03-24T08:55:16.586Z,6.13
2023-03-24T08:57:45.426Z,7.40
2023-03-24T09:00:15.292Z,7.00
2023-03-24T09:02:45.475Z,6.80
2023-03-24T09:05:15.403Z,6.70
2023-03-24T09:07:43.318Z,6.73
2023-03-24T09:10:11.550Z,6.00
2023-03-24T09:12:40.282Z,7.20
2023-03-24T09:15:08.709Z,6.13
2023-03-24T09:17:36.930Z,5.90
2023-03-24T09:20:08.792Z,5.80
2023-03-24T09:22:37.994Z,6.60
2023-03-24T09:25:06.269Z,6.07
2023-03-24T09:27:34.559Z,6.27
2023-03-24T09:30:02.385Z,6.10
2023-03-24T09:32:30.200Z,6.20
2023-03-24T09:34:57.900Z,5.10
2023-03-24T09:37:31.471Z,5.60
2023-03-24T09:40:01.333Z,5.80
2023-03-24T09:42:31.285Z,5.73
2023-03-24T09:44:59.553Z,5.73
2023-03-24T09:47:30.122Z,5.70
2023-03-24T09:49:59.827Z,4.27
2023-03-24T09:52:30.671Z,4.90
2023-03-24T09:55:02.591Z,5.37
2023-03-24T09:57:36.103Z,4.40
2023-03-24T10:00:11.001Z,4.57
2023-03-24T10:02:41.033Z,5.67
2023-03-24T10:05:13.858Z,5.10
2023-03-24T10:07:44.819Z,5.93
2023-03-24T10:10:19.278Z,5.20
2023-03-24T10:12:48.688Z,4.50
2023-03-24T10:17:57.739Z,4.77
2023-03-24T10:20:31.148Z,4.30
2023-03-24T10:23:02.116Z,3.80
2023-03-24T10:25:38.541Z,4.20
2023-03-24T10:28:10.485Z,3.80
2023-03-24T10:30:42.421Z,8.60
2023-03-24T10:33:11.469Z,5.53
2023-03-24T10:35:41.501Z,6.70
2023-03-24T10:38:14.855Z,6.40
2023-03-24T10:40:44.826Z,4.00
2023-03-24T10:43:13.315Z,3.50
2023-03-24T10:45:44.229Z,4.00
2023-03-24T10:48:13.380Z,4.33
2023-03-24T10:50:44.029Z,4.40
2023-03-24T10:53:19.440Z,4.17
2023-03-24T10:55:50.724Z,3.80
2023-03-24T10:58:21.732Z,3.57
2023-03-24T11:00:50.172Z,4.40
2023-03-24T11:03:23.865Z,3.40
2023-03-24T11:05:58.739Z,3.67
2023-03-24T11:08:28.646Z,3.93
2023-03-24T11:10:57.955Z,5.50
2023-03-24T11:13:30.696Z,3.67
2023-03-24T11:16:06.504Z,3.13
2023-03-24T11:18:34.653Z,4.50
2023-03-24T11:21:04.123Z,3.67
2023-03-24T11:23:33.138Z,3.37
2023-03-24T11:26:08.114Z,3.30
2023-03-24T11:28:38.015Z,3.47
2023-03-24T11:31:07.926Z,3.53
2023-03-24T11:33:38.610Z,3.40
2023-03-24T11:36:11.110Z,3.00
2023-03-24T11:38:39.491Z,2.60
2023-03-24T11:41:20.638Z,3.37
2023-03-24T11:43:48.865Z,2.90
2023-03-24T11:46:20.645Z,2.80
2023-03-24T11:48:52.041Z,3.03
2023-03-24T11:51:26.592Z,3.20
2023-03-24T11:53:56.581Z,3.37
2023-03-24T11:56:28.669Z,2.97
2023-03-24T11:58:58.660Z,3.27
2023-03-24T12:01:28.420Z,3.40
2023-03-24T12:04:13.949Z,4.17
2023-03-24T12:06:48.013Z,3.70
2023-03-24T12:09:22.034Z,3.80
2023-03-24T12:11:58.795Z,3.40
2023-03-24T12:14:46.949Z,3.00
2023-03-24T12:17:15.828Z,3.23
2023-03-24T12:20:06.388Z,3.70
2023-03-24T12:22:40.618Z,4.60
2023-03-24T12:25:19.300Z,7.00
2023-03-24T12:27:53.344Z,4.90
2023-03-24T12:30:25.823Z,3.20
2023-03-24T12:33:01.604Z,3.80
2023-03-24T12:35:39.900Z,3.13
2023-03-24T12:38:16.417Z,3.70
2023-03-24T12:40:51.713Z,3.53
2023-03-24T12:43:26.719Z,4.07
2023-03-24T12:45:57.809Z,4.00
2023-03-24T12:48:34.636Z,4.40
2023-03-24T12:51:08.481Z,3.87
2023-03-24T12:53:43.738Z,3.60
2023-03-24T12:56:14.348Z,3.80
2023-03-24T12:58:46.068Z,5.00
2023-03-24T13:01:17.438Z,6.17
2023-03-24T13:03:47.307Z,4.30
2023-03-24T13:06:18.808Z,3.80
2023-03-24T13:08:50.585Z,3.90
2023-03-24T13:11:32.248Z,4.40
2023-03-24T13:14:04.098Z,4.03
2023-03-24T13:16:33.633Z,5.40
2023-03-24T13:19:03.327Z,5.07
2023-03-24T13:21:35.419Z,5.40
2023-03-24T13:24:09.353Z,4.83
2023-03-24T13:26:40.187Z,5.37
2023-03-24T13:29:20.955Z,5.60
2023-03-24T13:31:52.424Z,7.70
2023-03-24T13:34:24.578Z,8.23
2023-03-24T13:36:55.724Z,7.10
2023-03-24T13:39:25.411Z,10.47
2023-03-24T13:41:54.489Z,10.83
2023-03-24T13:44:25.759Z,18.33
2023-03-24T13:47:09.526Z,10.40
2023-03-24T13:49:37.785Z,8.67
2023-03-24T13:52:06.605Z,8.13
2023-03-24T13:54:37.420Z,7.57
2023-03-24T13:57:06.241Z,7.10
2023-03-24T13:59:41.154Z,6.20
2023-03-24T14:02:19.252Z,5.60
2023-03-24T14:04:48.054Z,6.33
2023-03-24T14:07:31.316Z,5.40
2023-03-24T14:10:00.768Z,4.70
2023-03-24T14:12:32.655Z,5.03
2023-03-24T14:15:14.086Z,4.53
2023-03-24T14:17:44.093Z,4.50
2023-03-24T14:20:13.497Z,3.90
2023-03-24T14:22:42.605Z,4.50
2023-03-24T14:25:22.661Z,4.97
2023-03-24T14:27:51.219Z,4.07
2023-03-24T14:30:22.652Z,3.53
2023-03-24T14:32:52.162Z,4.70
2023-03-24T14:35:23.475Z,4.93
2023-03-24T14:37:53.324Z,4.80
2023-03-24T14:40:29.753Z,5.07
2023-03-24T14:43:03.070Z,5.53
2023-03-24T14:45:42.835Z,3.90
2023-03-24T14:48:23.193Z,4.67
2023-03-24T14:50:52.100Z,5.67
2023-03-24T14:53:20.438Z,3.80
2023-03-24T14:55:49.100Z,4.30
2023-03-24T14:58:21.819Z,5.80
2023-03-24T15:01:06.606Z,4.00
2023-03-24T15:03:38.352Z,6.03
2023-03-24T15:06:15.715Z,3.40
2023-03-24T15:08:50.820Z,2.80
2023-03-24T15:11:20.823Z,3.60
2023-03-24T15:13:50.226Z,3.40
2023-03-24T15:16:20.443Z,2.70
2023-03-24T15:19:00.552Z,2.17
2023-03-24T15:21:31.292Z,3.20
2023-03-24T15:24:01.265Z,3.10
2023-03-24T15:26:30.091Z,2.77
2023-03-24T15:28:59.028Z,2.47
2023-03-24T15:31:30.397Z,2.77
2023-03-24T15:34:06.294Z,2.20
2023-03-24T15:36:40.581Z,2.40
2023-03-24T15:39:18.647Z,8.40
2023-03-24T15:41:47.439Z,6.90
2023-03-24T15:44:18.475Z,5.90
2023-03-24T15:46:48.232Z,8.40
2023-03-24T15:49:21.096Z,4.63
2023-03-24T15:51:50.301Z,3.83
2023-03-24T15:54:21.922Z,6.50
2023-03-24T15:57:08.403Z,6.40
2023-03-24T15:59:37.714Z,4.00
2023-03-24T16:02:11.856Z,2.90
2023-03-24T16:04:41.496Z,3.40
2023-03-24T16:07:23.842Z,2.40
2023-03-24T16:09:57.826Z,2.97
2023-03-24T16:12:26.300Z,2.70
2023-03-24T16:14:53.971Z,3.03
2023-03-24T16:17:23.286Z,2.47
2023-03-24T16:19:51.173Z,2.57
2023-03-24T16:22:19.076Z,3.00
2023-03-24T16:24:46.914Z,3.57
2023-03-24T16:27:15.402Z,2.80
2023-03-24T16:29:44.263Z,2.93
2023-03-24T16:32:12.069Z,3.30
2023-03-24T16:34:42.179Z,3.40
2023-03-24T16:37:10.718Z,3.03
2023-03-24T16:39:38.480Z,3.23
2023-03-24T16:42:06.232Z,2.50
2023-03-24T16:44:34.217Z,3.87
2023-03-24T16:47:02.488Z,3.83
2023-03-24T16:49:30.399Z,3.13
2023-03-24T16:51:59.577Z,3.10
2023-03-24T16:54:27.777Z,4.50
2023-03-24T16:56:55.584Z,3.93
2023-03-24T16:59:23.283Z,3.40
2023-03-24T17:01:53.061Z,3.57
2023-03-24T17:04:22.295Z,3.70
2023-03-24T17:06:54.645Z,3.67
2023-03-24T17:09:24.424Z,5.13
2023-03-24T17:11:53.203Z,3.70
2023-03-24T17:14:21.471Z,3.33
2023-03-24T17:16:50.638Z,3.67
2023-03-24T17:19:19.972Z,4.53
2023-03-24T17:21:50.163Z,5.57
2023-03-24T17:24:17.989Z,6.93
2023-03-24T17:26:47.059Z,4.73
2023-03-24T17:29:15.128Z,4.03
2023-03-24T17:31:43.928Z,4.60
2023-03-24T17:34:21.604Z,4.83
2023-03-24T17:36:51.022Z,6.47
2023-03-24T17:39:20.400Z,5.77
2023-03-24T17:41:49.803Z,4.73
2023-03-24T17:44:17.701Z,4.10
2023-03-24T17:46:45.520Z,4.73
2023-03-24T17:49:13.283Z,3.87
2023-03-24T17:51:41.084Z,4.60
2023-03-24T17:54:10.277Z,6.07
2023-03-24T17:56:38.376Z,5.90
2023-03-24T17:59:07.638Z,6.23
2023-03-24T18:01:39.182Z,5.10
2023-03-24T18:04:08.054Z,4.33
2023-03-24T18:06:35.843Z,5.33
2023-03-24T18:09:04.256Z,5.83
2023-03-24T18:11:31.983Z,5.57
2023-03-24T18:13:59.912Z,4.80
2023-03-24T18:16:30.717Z,4.97
2023-03-24T18:19:00.517Z,5.43
2023-03-24T18:21:28.531Z,4.60
2023-03-24T18:23:56.273Z,5.67
2023-03-24T18:26:24.255Z,7.13
2023-03-24T18:28:52.188Z,6.00
2023-03-24T18:31:21.106Z,6.20
2023-03-24T18:33:52.339Z,7.30
2023-03-24T18:36:21.220Z,9.07
2023-03-24T18:38:49.615Z,8.47
2023-03-24T18:41:18.738Z,8.33
2023-03-24T18:43:47.911Z,8.07
2023-03-24T18:46:16.960Z,7.20
2023-03-24T18:48:45.156Z,8.70
2023-03-24T18:51:14.760Z,8.27
2023-03-24T18:53:42.704Z,7.53
2023-03-24T18:56:11.328Z,7.50
2023-03-24T18:58:39.231Z,6.90
2023-03-24T19:01:08.829Z,8.53
2023-03-24T19:03:38.167Z,6.43
2023-03-24T19:06:07.057Z,7.10
2023-03-24T19:08:37.840Z,6.80
2023-03-24T19:11:06.654Z,6.70
2023-03-24T19:13:34.693Z,7.87
2023-03-24T19:16:02.547Z,7.07
2023-03-24T19:18:30.850Z,7.03
2023-03-24T19:20:59.255Z,7.47
2023-03-24T19:23:27.373Z,8.33
2023-03-24T19:25:57.218Z,7.60
2023-03-24T19:28:26.548Z,8.40
2023-03-24T19:30:54.896Z,8.57
2023-03-24T19:33:22.866Z,6.80
2023-03-24T19:35:51.263Z,6.00
2023-03-24T19:38:20.960Z,6.10
2023-03-24T19:40:48.922Z,5.33
2023-03-24T19:43:18.947Z,6.07
2023-03-24T19:45:49.975Z,6.27
2023-03-24T19:48:18.257Z,6.03
2023-03-24T19:50:46.310Z,5.97
2023-03-24T19:53:14.156Z,6.03
2023-03-24T19:55:42.232Z,6.97
2023-03-24T19:58:09.905Z,5.73
2023-03-24T20:00:38.992Z,7.10
2023-03-24T20:03:06.956Z,7.57
2023-03-24T20:05:34.866Z,5.57
2023-03-24T20:08:02.913Z,4.30
2023-03-24T20:10:30.912Z,5.37
2023-03-24T20:12:58.706Z,5.00
2023-03-24T20:15:26.404Z,5.27
2023-03-24T20:17:55.826Z,5.00
2023-03-24T20:20:24.243Z,4.57
2023-03-24T20:22:52.293Z,4.73
2023-03-24T20:25:20.658Z,4.10
2023-03-24T20:27:48.423Z,4.50
2023-03-24T20:30:17.337Z,5.33
2023-03-24T20:32:45.473Z,3.53
2023-03-24T20:35:15.012Z,4.20
2023-03-24T20:37:43.250Z,3.83
2023-03-24T20:40:11.108Z,3.73
2023-03-24T20:42:39.815Z,4.17
2023-03-24T20:45:08.997Z,3.70
2023-03-24T20:47:37.563Z,5.03
2023-03-24T20:50:06.046Z,3.30
2023-03-24T20:52:36.075Z,4.30
2023-03-24T20:55:06.220Z,3.90
2023-03-24T20:57:34.331Z,4.10
2023-03-24T21:00:09.637Z,4.20
2023-03-24T21:02:37.944Z,4.20
2023-03-24T21:05:06.435Z,3.50
2023-03-24T21:07:36.843Z,3.60
2023-03-24T21:10:07.663Z,4.43
2023-03-24T21:12:35.950Z,4.23
2023-03-24T21:15:21.194Z,3.87
2023-03-24T21:17:49.875Z,4.40
2023-03-24T21:20:18.936Z,4.73
2023-03-24T21:22:55.253Z,4.90
2023-03-24T21:25:26.872Z,5.50
2023-03-24T21:27:55.269Z,4.40
2023-03-24T21:30:23.751Z,5.50
2023-03-24T21:32:52.614Z,4.90
2023-03-24T21:35:20.891Z,5.10
2023-03-24T21:37:48.834Z,5.07
2023-03-24T21:40:18.543Z,4.60
2023-03-24T21:42:49.611Z,4.30
2023-03-24T21:45:18.886Z,4.27
2023-03-24T21:47:47.602Z,4.93
2023-03-24T21:50:19.099Z,4.70
2023-03-24T21:52:47.589Z,4.87
2023-03-24T21:55:15.988Z,4.73
2023-03-24T21:57:45.307Z,5.00
2023-03-24T22:00:16.594Z,13.40
2023-03-24T22:02:46.377Z,5.43
2023-03-24T22:05:14.642Z,5.23
2023-03-24T22:07:42.686Z,5.67
2023-03-24T22:10:13.417Z,6.23
2023-03-24T22:12:43.902Z,5.20
2023-03-24T22:15:12.771Z,6.27
2023-03-24T22:17:42.158Z,6.73
2023-03-24T22:20:10.309Z,5.87
2023-03-24T22:22:38.465Z,5.80
2023-03-24T22:25:07.741Z,5.70
2023-03-24T22:27:35.961Z,6.50
2023-03-24T22:30:04.092Z,5.50
2023-03-24T22:32:32.329Z,6.47
2023-03-24T22:35:02.016Z,6.90
2023-03-24T22:37:30.091Z,5.30
2023-03-24T22:39:57.796Z,5.87
2023-03-24T22:42:25.557Z,6.17
2023-03-24T22:44:53.947Z,6.47
2023-03-24T22:47:21.950Z,5.93
2023-03-24T22:49:49.680Z,6.47
2023-03-24T22:52:18.687Z,6.67
2023-03-24T22:54:46.726Z,6.23
2023-03-24T22:57:14.568Z,5.67
2023-03-24T22:59:42.266Z,5.73
2023-03-24T23:02:10.592Z,5.80
2023-03-24T23:04:39.684Z,5.30
2023-03-24T23:07:08.109Z,5.03
2023-03-24T23:09:37.892Z,5.53
2023-03-24T23:12:05.998Z,6.10
2023-03-24T23:14:33.735Z,5.40
2023-03-24T23:17:01.729Z,4.93
2023-03-24T23:19:33.124Z,4.33
2023-03-24T23:22:01.319Z,4.30
2023-03-24T23:24:28.980Z,3.70
2023-03-24T23:26:58.300Z,3.80
2023-03-24T23:29:26.173Z,3.87
2023-03-24T23:31:53.896Z,4.10
2023-03-24T23:34:22.125Z,4.50
2023-03-24T23:36:50.554Z,3.60
2023-03-24T23:39:18.326Z,3.73
2023-03-24T23:41:46.405Z,4.20
2023-03-24T23:44:19.515Z,3.20
2023-03-24T23:46:47.665Z,3.13
2023-03-24T23:49:15.494Z,3.47
2023-03-24T23:51:43.441Z,3.37
2023-03-24T23:54:11.800Z,3.20
2023-03-24T23:56:39.519Z,3.60
2023-03-24T23:59:07.743Z,2.63
